createdAt,value
2023-04-09T00:09:57.367Z,11.80
2023-04-09T00:24:58.917Z,12.10
2023-04-09T00:40:00.415Z,12.53
2023-04-09T00:55:01.973Z,12.10
2023-04-09T01:10:03.484Z,11.60
2023-04-09T01:25:04.986Z,12.67
2023-04-09T01:40:06.503Z,12.60
2023-04-09T01:55:08.066Z,11.23
2023-04-09T02:10:09.521Z,12.33
2023-04-09T02:25:10.994Z,11.43
2023-04-09T02:40:12.484Z,11.73
2023-04-09T02:55:13.970Z,12.33
2023-04-09T03:10:15.534Z,9.83
2023-04-09T03:25:16.988Z,10.47
2023-04-09T03:40:18.436Z,9.20
2023-04-09T03:55:19.921Z,8.87
2023-04-09T04:10:21.423Z,10.00
2023-04-09T04:25:22.935Z,9.63
2023-04-09T04:40:24.579Z,8.30
2023-04-09T04:55:26.198Z,9.83
2023-04-09T05:10:27.689Z,7.93
2023-04-09T05:25:29.216Z,8.07
2023-04-09T05:40:30.669Z,9.30
2023-04-09T05:55:32.175Z,8.53
2023-04-09T06:10:33.716Z,11.27
2023-04-09T06:25:35.358Z,14.80
2023-04-09T06:40:36.912Z,17.97
2023-04-09T06:55:38.437Z,16.77
2023-04-09T07:10:40.220Z,14.97
2023-04-09T07:25:41.694Z,15.30
2023-04-09T07:40:43.158Z,15.20
2023-04-09T07:55:44.650Z,16.00
2023-04-09T08:10:46.128Z,15.20
2023-04-09T08:25:47.623Z,15.67
2023-04-09T08:40:49.133Z,12.30
2023-04-09T08:55:50.597Z,13.47
2023-04-09T09:10:54.864Z,11.70
2023-04-09T09:25:56.376Z,10.73
2023-04-09T09:40:57.946Z,11.20
2023-04-09T09:55:59.401Z,10.13
2023-04-09T10:11:00.908Z,11.33
2023-04-09T10:26:02.468Z,10.93
2023-04-09T10:41:03.953Z,10.77
2023-04-09T10:56:05.526Z,11.60
2023-04-09T11:11:07.175Z,10.20
2023-04-09T11:26:08.640Z,10.43
2023-04-09T11:41:10.167Z,9.23
2023-04-09T11:56:11.718Z,8.27
2023-04-09T12:11:13.207Z,9.90
2023-04-09T12:26:14.782Z,10.23
2023-04-09T12:41:16.267Z,13.87
2023-04-09T12:56:17.805Z,16.70
2023-04-09T13:11:19.295Z,13.37
2023-04-09T13:26:20.765Z,12.47
2023-04-09T13:41:22.236Z,13.40
2023-04-09T13:56:23.851Z,12.10
2023-04-09T14:11:25.313Z,11.20
2023-04-09T14:26:26.813Z,13.57
2023-04-09T14:41:28.340Z,10.47
2023-04-09T14:56:29.904Z,10.67
2023-04-09T15:11:31.676Z,12.60
2023-04-09T15:26:33.214Z,10.40
2023-04-09T15:41:34.690Z,9.23
2023-04-09T15:56:36.284Z,10.40
2023-04-09T16:11:37.774Z,8.43
2023-04-09T16:26:39.258Z,8.47
2023-04-09T16:41:40.818Z,8.60
2023-04-09T16:56:42.478Z,9.43
2023-04-09T17:11:44.016Z,9.17
2023-04-09T17:26:46.038Z,8.17
2023-04-09T17:41:47.504Z,8.47
2023-04-09T17:56:48.977Z,7.70
2023-04-09T18:11:50.492Z,7.57
2023-04-09T18:26:52.030Z,7.97
2023-04-09T18:41:53.670Z,7.77
2023-04-09T18:56:55.154Z,7.93
2023-04-09T19:11:56.637Z,7.20
2023-04-09T19:26:58.177Z,7.80
2023-04-09T19:41:59.667Z,7.90
2023-04-09T19:57:01.148Z,6.77
2023-04-09T20:12:02.750Z,6.90
2023-04-09T20:27:04.293Z,8.37
2023-04-09T20:42:05.841Z,7.47
2023-04-09T20:57:07.343Z,6.70
2023-04-09T21:12:08.818Z,7.83
2023-04-09T21:27:10.301Z,9.67
2023-04-09T21:42:11.867Z,8.10
2023-04-09T21:57:13.375Z,8.13
2023-04-09T22:12:14.814Z,8.07
2023-04-09T22:27:16.257Z,8.50
2023-04-09T22:42:17.739Z,10.43
2023-04-09T22:57:19.186Z,9.33
2023-04-09T23:12:20.631Z,8.53
2023-04-09T23:27:22.283Z,8.67
2023-04-09T23:42:23.736Z,9.20
2023-04-09T23:57:25.318Z,9.00
